sensor_id;sensor_type;location;lat;lon;timestamp;temperature;humidity
23744;DHT22;12052;53.478;10.182;2023-01-09T00:01:34;5.70;99.90
23744;DHT22;12052;53.478;10.182;2023-01-09T00:04:00;5.70;99.90
23744;DHT22;12052;53.478;10.182;2023-01-09T00:06:26;5.70;99.90
23744;DHT22;12052;53.478;10.182;2023-01-09T00:08:51;5.70;99.90
23744;DHT22;12052;53.478;10.182;2023-01-09T00:11:17;5.70;99.90
23744;DHT22;12052;53.478;10.182;2023-01-09T00:13:43;5.70;99.90
23744;DHT22;12052;53.478;10.182;2023-01-09T00:16:09;5.70;99.90
23744;DHT22;12052;53.478;10.182;2023-01-09T00:18:35;5.70;99.90
23744;DHT22;12052;53.478;10.182;2023-01-09T00:21:04;5.70;99.90
23744;DHT22;12052;53.478;10.182;2023-01-09T00:23:31;5.70;99.90
23744;DHT22;12052;53.478;10.182;2023-01-09T00:26:05;5.70;99.90
23744;DHT22;12052;53.478;10.182;2023-01-09T00:28:31;5.60;99.90
23744;DHT22;12052;53.478;10.182;2023-01-09T00:30:58;5.60;99.90
23744;DHT22;12052;53.478;10.182;2023-01-09T00:33:30;5.60;99.90
23744;DHT22;12052;53.478;10.182;2023-01-09T00:35:56;5.50;99.90
23744;DHT22;12052;53.478;10.182;2023-01-09T00:38:23;5.60;99.90
23744;DHT22;12052;53.478;10.182;2023-01-09T00:40:49;5.60;99.90
23744;DHT22;12052;53.478;10.182;2023-01-09T00:43:16;5.60;99.90
23744;DHT22;12052;53.478;10.182;2023-01-09T00:45:42;5.60;99.90
23744;DHT22;12052;53.478;10.182;2023-01-09T00:48:11;5.70;99.90
23744;DHT22;12052;53.478;10.182;2023-01-09T00:50:37;5.70;99.90
23744;DHT22;12052;53.478;10.182;2023-01-09T00:53:12;5.70;99.90
23744;DHT22;12052;53.478;10.182;2023-01-09T00:55:40;5.70;99.90
23744;DHT22;12052;53.478;10.182;2023-01-09T00:58:05;5.70;99.90
23744;DHT22;12052;53.478;10.182;2023-01-09T01:00:31;5.70;99.90
23744;DHT22;12052;53.478;10.182;2023-01-09T01:02:57;5.70;99.90
23744;DHT22;12052;53.478;10.182;2023-01-09T01:05:22;5.70;99.90
23744;DHT22;12052;53.478;10.182;2023-01-09T01:08:26;5.70;99.90
23744;DHT22;12052;53.478;10.182;2023-01-09T01:10:52;5.70;99.90
23744;DHT22;12052;53.478;10.182;2023-01-09T01:13:17;5.70;99.90
23744;DHT22;12052;53.478;10.182;2023-01-09T01:15:44;5.70;99.90
23744;DHT22;12052;53.478;10.182;2023-01-09T01:18:11;5.70;99.90
23744;DHT22;12052;53.478;10.182;2023-01-09T01:20:41;5.70;99.90
23744;DHT22;12052;53.478;10.182;2023-01-09T01:23:07;5.60;99.90
23744;DHT22;12052;53.478;10.182;2023-01-09T01:25:36;5.60;99.90
23744;DHT22;12052;53.478;10.182;2023-01-09T01:28:02;5.50;99.90
23744;DHT22;12052;53.478;10.182;2023-01-09T01:30:27;5.50;99.90
23744;DHT22;12052;53.478;10.182;2023-01-09T01:32:53;5.40;99.90
23744;DHT22;12052;53.478;10.182;2023-01-09T01:35:18;5.40;99.90
23744;DHT22;12052;53.478;10.182;2023-01-09T01:37:44;5.40;99.90
23744;DHT22;12052;53.478;10.182;2023-01-09T01:40:10;5.40;99.90
23744;DHT22;12052;53.478;10.182;2023-01-09T01:42:36;5.40;99.90
23744;DHT22;12052;53.478;10.182;2023-01-09T01:45:09;5.40;99.90
23744;DHT22;12052;53.478;10.182;2023-01-09T01:47:53;5.40;99.90
23744;DHT22;12052;53.478;10.182;2023-01-09T01:50:42;5.50;99.90
23744;DHT22;12052;53.478;10.182;2023-01-09T01:53:18;5.60;99.90
23744;DHT22;12052;53.478;10.182;2023-01-09T01:56:18;5.60;99.90
23744;DHT22;12052;53.478;10.182;2023-01-09T01:58:53;5.70;99.90
23744;DHT22;12052;53.478;10.182;2023-01-09T02:01:21;5.70;99.90
23744;DHT22;12052;53.478;10.182;2023-01-09T02:03:48;5.70;99.90
23744;DHT22;12052;53.478;10.182;2023-01-09T02:06:14;5.70;99.90
23744;DHT22;12052;53.478;10.182;2023-01-09T02:08:40;5.60;99.90
23744;DHT22;12052;53.478;10.182;2023-01-09T02:11:06;5.60;99.90
23744;DHT22;12052;53.478;10.182;2023-01-09T02:13:34;5.60;99.90
23744;DHT22;12052;53.478;10.182;2023-01-09T02:16:10;5.60;99.90
23744;DHT22;12052;53.478;10.182;2023-01-09T02:27:30;5.50;99.90
23744;DHT22;12052;53.478;10.182;2023-01-09T02:38:50;5.50;99.90
23744;DHT22;12052;53.478;10.182;2023-01-09T02:41:22;5.50;99.90
23744;DHT22;12052;53.478;10.182;2023-01-09T02:44:22;5.50;99.90
23744;DHT22;12052;53.478;10.182;2023-01-09T02:46:46;5.50;99.90
23744;DHT22;12052;53.478;10.182;2023-01-09T02:49:14;5.60;99.90
23744;DHT22;12052;53.478;10.182;2023-01-09T02:51:51;5.60;99.90
23744;DHT22;12052;53.478;10.182;2023-01-09T02:59:40;5.60;99.90
23744;DHT22;12052;53.478;10.182;2023-01-09T03:02:38;5.70;99.90
23744;DHT22;12052;53.478;10.182;2023-01-09T03:10:22;5.70;99.90
23744;DHT22;12052;53.478;10.182;2023-01-09T03:12:52;5.70;99.90
23744;DHT22;12052;53.478;10.182;2023-01-09T03:15:23;5.70;99.90
23744;DHT22;12052;53.478;10.182;2023-01-09T03:17:50;5.80;99.90
23744;DHT22;12052;53.478;10.182;2023-01-09T03:20:20;5.80;99.90
23744;DHT22;12052;53.478;10.182;2023-01-09T03:22:55;5.80;99.90
23744;DHT22;12052;53.478;10.182;2023-01-09T03:25:22;5.80;99.90
23744;DHT22;12052;53.478;10.182;2023-01-09T03:27:51;5.80;99.90
23744;DHT22;12052;53.478;10.182;2023-01-09T03:30:19;5.80;99.90
23744;DHT22;12052;53.478;10.182;2023-01-09T03:32:44;5.80;99.90
23744;DHT22;12052;53.478;10.182;2023-01-09T03:35:10;5.80;99.90
23744;DHT22;12052;53.478;10.182;2023-01-09T03:37:36;5.80;99.90
23744;DHT22;12052;53.478;10.182;2023-01-09T03:40:02;5.90;99.90
23744;DHT22;12052;53.478;10.182;2023-01-09T03:42:27;5.80;99.90
23744;DHT22;12052;53.478;10.182;2023-01-09T03:44:53;5.90;99.90
23744;DHT22;12052;53.478;10.182;2023-01-09T03:47:18;5.90;99.90
23744;DHT22;12052;53.478;10.182;2023-01-09T03:49:44;6.00;99.90
23744;DHT22;12052;53.478;10.182;2023-01-09T03:52:10;6.00;99.90
23744;DHT22;12052;53.478;10.182;2023-01-09T03:54:42;6.10;99.90
23744;DHT22;12052;53.478;10.182;2023-01-09T03:57:08;6.10;99.90
23744;DHT22;12052;53.478;10.182;2023-01-09T03:59:34;6.10;99.90
23744;DHT22;12052;53.478;10.182;2023-01-09T04:01:59;6.20;99.90
23744;DHT22;12052;53.478;10.182;2023-01-09T04:04:25;6.20;99.90
23744;DHT22;12052;53.478;10.182;2023-01-09T04:06:50;6.20;99.90
23744;DHT22;12052;53.478;10.182;2023-01-09T04:09:16;6.20;99.90
23744;DHT22;12052;53.478;10.182;2023-01-09T04:11:41;6.20;99.90
23744;DHT22;12052;53.478;10.182;2023-01-09T04:14:07;6.20;99.90
23744;DHT22;12052;53.478;10.182;2023-01-09T04:16:32;6.20;99.90
23744;DHT22;12052;53.478;10.182;2023-01-09T04:18:59;6.10;99.90
23744;DHT22;12052;53.478;10.182;2023-01-09T04:21:24;6.10;99.90
23744;DHT22;12052;53.478;10.182;2023-01-09T04:23:50;6.10;99.90
23744;DHT22;12052;53.478;10.182;2023-01-09T04:26:16;6.10;99.90
23744;DHT22;12052;53.478;10.182;2023-01-09T04:28:41;6.10;99.90
23744;DHT22;12052;53.478;10.182;2023-01-09T04:31:07;6.10;99.90
23744;DHT22;12052;53.478;10.182;2023-01-09T04:33:32;6.10;99.90
23744;DHT22;12052;53.478;10.182;2023-01-09T04:35:59;6.10;99.90
23744;DHT22;12052;53.478;10.182;2023-01-09T04:38:25;6.10;99.90
23744;DHT22;12052;53.478;10.182;2023-01-09T04:40:52;6.20;99.90
23744;DHT22;12052;53.478;10.182;2023-01-09T04:43:18;6.10;99.90
23744;DHT22;12052;53.478;10.182;2023-01-09T04:45:43;6.10;99.90
23744;DHT22;12052;53.478;10.182;2023-01-09T04:48:09;6.20;99.90
23744;DHT22;12052;53.478;10.182;2023-01-09T04:50:35;6.20;99.90
23744;DHT22;12052;53.478;10.182;2023-01-09T04:53:01;6.10;99.90
23744;DHT22;12052;53.478;10.182;2023-01-09T04:55:26;6.10;99.90
23744;DHT22;12052;53.478;10.182;2023-01-09T04:57:52;6.10;99.90
23744;DHT22;12052;53.478;10.182;2023-01-09T05:00:18;6.10;99.90
23744;DHT22;12052;53.478;10.182;2023-01-09T05:02:45;6.10;99.90
23744;DHT22;12052;53.478;10.182;2023-01-09T05:05:10;6.20;99.90
23744;DHT22;12052;53.478;10.182;2023-01-09T05:07:36;6.10;99.90
23744;DHT22;12052;53.478;10.182;2023-01-09T05:10:03;6.10;99.90
23744;DHT22;12052;53.478;10.182;2023-01-09T05:12:28;6.10;99.90
23744;DHT22;12052;53.478;10.182;2023-01-09T05:14:54;6.20;99.90
23744;DHT22;12052;53.478;10.182;2023-01-09T05:17:22;6.20;99.90
23744;DHT22;12052;53.478;10.182;2023-01-09T05:19:47;6.20;99.90
23744;DHT22;12052;53.478;10.182;2023-01-09T05:22:14;6.20;99.90
23744;DHT22;12052;53.478;10.182;2023-01-09T05:24:39;6.20;99.90
23744;DHT22;12052;53.478;10.182;2023-01-09T05:27:05;6.20;99.90
23744;DHT22;12052;53.478;10.182;2023-01-09T05:29:31;6.20;99.90
23744;DHT22;12052;53.478;10.182;2023-01-09T05:31:56;6.30;99.90
23744;DHT22;12052;53.478;10.182;2023-01-09T05:34:22;6.30;99.90
23744;DHT22;12052;53.478;10.182;2023-01-09T05:36:48;6.20;99.90
23744;DHT22;12052;53.478;10.182;2023-01-09T05:39:14;6.30;99.90
23744;DHT22;12052;53.478;10.182;2023-01-09T05:41:39;6.30;99.90
23744;DHT22;12052;53.478;10.182;2023-01-09T05:44:05;6.20;99.90
23744;DHT22;12052;53.478;10.182;2023-01-09T05:46:31;6.30;99.90
23744;DHT22;12052;53.478;10.182;2023-01-09T05:48:57;6.40;99.90
23744;DHT22;12052;53.478;10.182;2023-01-09T05:51:22;6.40;99.90
23744;DHT22;12052;53.478;10.182;2023-01-09T05:53:48;6.30;99.90
23744;DHT22;12052;53.478;10.182;2023-01-09T05:56:14;6.30;99.90
23744;DHT22;12052;53.478;10.182;2023-01-09T05:58:40;6.40;99.90
23744;DHT22;12052;53.478;10.182;2023-01-09T06:01:06;6.40;99.90
23744;DHT22;12052;53.478;10.182;2023-01-09T06:03:33;6.40;99.90
23744;DHT22;12052;53.478;10.182;2023-01-09T06:05:58;6.40;99.90
23744;DHT22;12052;53.478;10.182;2023-01-09T06:08:24;6.40;99.90
23744;DHT22;12052;53.478;10.182;2023-01-09T06:10:50;6.50;99.90
23744;DHT22;12052;53.478;10.182;2023-01-09T06:13:16;6.40;99.90
23744;DHT22;12052;53.478;10.182;2023-01-09T06:15:42;6.50;99.90
23744;DHT22;12052;53.478;10.182;2023-01-09T06:18:07;6.50;99.90
23744;DHT22;12052;53.478;10.182;2023-01-09T06:20:34;6.50;99.90
23744;DHT22;12052;53.478;10.182;2023-01-09T06:23:00;6.50;99.90
23744;DHT22;12052;53.478;10.182;2023-01-09T06:25:25;6.40;99.90
23744;DHT22;12052;53.478;10.182;2023-01-09T06:27:51;6.40;99.90
23744;DHT22;12052;53.478;10.182;2023-01-09T06:30:18;6.50;99.90
23744;DHT22;12052;53.478;10.182;2023-01-09T06:32:44;6.50;99.90
23744;DHT22;12052;53.478;10.182;2023-01-09T06:35:11;6.50;99.90
23744;DHT22;12052;53.478;10.182;2023-01-09T06:37:37;6.40;99.90
23744;DHT22;12052;53.478;10.182;2023-01-09T06:40:04;6.50;99.90
23744;DHT22;12052;53.478;10.182;2023-01-09T06:42:30;6.50;99.90
23744;DHT22;12052;53.478;10.182;2023-01-09T06:44:56;6.50;99.90
23744;DHT22;12052;53.478;10.182;2023-01-09T06:47:21;6.40;99.90
23744;DHT22;12052;53.478;10.182;2023-01-09T06:49:47;6.40;99.90
23744;DHT22;12052;53.478;10.182;2023-01-09T06:52:13;6.50;99.90
23744;DHT22;12052;53.478;10.182;2023-01-09T06:54:38;6.50;99.90
23744;DHT22;12052;53.478;10.182;2023-01-09T06:57:04;6.50;99.90
23744;DHT22;12052;53.478;10.182;2023-01-09T06:59:30;6.50;99.90
23744;DHT22;12052;53.478;10.182;2023-01-09T07:01:56;6.40;99.90
23744;DHT22;12052;53.478;10.182;2023-01-09T07:04:21;6.50;99.90
23744;DHT22;12052;53.478;10.182;2023-01-09T07:06:48;6.60;99.90
23744;DHT22;12052;53.478;10.182;2023-01-09T07:09:14;6.40;99.90
23744;DHT22;12052;53.478;10.182;2023-01-09T07:11:39;6.50;99.90
23744;DHT22;12052;53.478;10.182;2023-01-09T07:14:06;6.50;99.90
23744;DHT22;12052;53.478;10.182;2023-01-09T07:16:32;6.40;99.90
23744;DHT22;12052;53.478;10.182;2023-01-09T07:18:58;6.50;99.90
23744;DHT22;12052;53.478;10.182;2023-01-09T07:21:24;6.30;99.90
23744;DHT22;12052;53.478;10.182;2023-01-09T07:23:49;6.40;99.90
23744;DHT22;12052;53.478;10.182;2023-01-09T07:26:15;6.30;99.90
23744;DHT22;12052;53.478;10.182;2023-01-09T07:28:41;6.30;99.90
23744;DHT22;12052;53.478;10.182;2023-01-09T07:31:07;6.30;99.90
23744;DHT22;12052;53.478;10.182;2023-01-09T07:33:33;6.30;99.90
23744;DHT22;12052;53.478;10.182;2023-01-09T07:36:02;6.30;99.90
23744;DHT22;12052;53.478;10.182;2023-01-09T07:38:28;6.10;99.90
23744;DHT22;12052;53.478;10.182;2023-01-09T07:40:53;6.20;99.90
23744;DHT22;12052;53.478;10.182;2023-01-09T07:43:19;6.10;99.90
23744;DHT22;12052;53.478;10.182;2023-01-09T07:45:45;6.10;99.90
23744;DHT22;12052;53.478;10.182;2023-01-09T07:48:11;6.10;99.90
23744;DHT22;12052;53.478;10.182;2023-01-09T07:50:36;6.00;99.90
23744;DHT22;12052;53.478;10.182;2023-01-09T07:53:02;6.10;99.90
23744;DHT22;12052;53.478;10.182;2023-01-09T07:55:28;6.00;99.90
23744;DHT22;12052;53.478;10.182;2023-01-09T07:57:53;6.00;99.90
23744;DHT22;12052;53.478;10.182;2023-01-09T08:00:19;6.00;99.90
23744;DHT22;12052;53.478;10.182;2023-01-09T08:02:49;6.00;99.90
23744;DHT22;12052;53.478;10.182;2023-01-09T08:05:15;6.00;99.90
23744;DHT22;12052;53.478;10.182;2023-01-09T08:07:43;6.10;99.90
23744;DHT22;12052;53.478;10.182;2023-01-09T08:10:09;6.00;99.90
23744;DHT22;12052;53.478;10.182;2023-01-09T08:12:40;6.00;99.90
23744;DHT22;12052;53.478;10.182;2023-01-09T08:15:07;6.00;99.90
23744;DHT22;12052;53.478;10.182;2023-01-09T08:17:32;6.10;99.90
23744;DHT22;12052;53.478;10.182;2023-01-09T08:19:58;6.10;99.90
23744;DHT22;12052;53.478;10.182;2023-01-09T08:22:24;6.10;99.90
23744;DHT22;12052;53.478;10.182;2023-01-09T08:24:49;6.10;99.90
23744;DHT22;12052;53.478;10.182;2023-01-09T08:27:16;6.10;99.90
23744;DHT22;12052;53.478;10.182;2023-01-09T08:29:41;6.10;99.90
23744;DHT22;12052;53.478;10.182;2023-01-09T08:32:07;6.10;99.90
23744;DHT22;12052;53.478;10.182;2023-01-09T08:34:34;6.20;99.90
23744;DHT22;12052;53.478;10.182;2023-01-09T08:36:59;6.10;99.90
23744;DHT22;12052;53.478;10.182;2023-01-09T08:39:25;6.10;99.90
23744;DHT22;12052;53.478;10.182;2023-01-09T08:41:51;6.10;99.90
23744;DHT22;12052;53.478;10.182;2023-01-09T08:44:35;6.10;99.90
23744;DHT22;12052;53.478;10.182;2023-01-09T08:47:21;6.10;99.90
23744;DHT22;12052;53.478;10.182;2023-01-09T08:49:47;6.10;99.90
23744;DHT22;12052;53.478;10.182;2023-01-09T08:52:14;6.20;99.90
23744;DHT22;12052;53.478;10.182;2023-01-09T08:54:40;6.10;99.90
23744;DHT22;12052;53.478;10.182;2023-01-09T08:57:16;6.20;99.90
23744;DHT22;12052;53.478;10.182;2023-01-09T08:59:42;6.20;99.90
23744;DHT22;12052;53.478;10.182;2023-01-09T09:02:08;6.10;99.90
23744;DHT22;12052;53.478;10.182;2023-01-09T09:04:34;6.20;99.90
23744;DHT22;12052;53.478;10.182;2023-01-09T09:06:59;6.30;99.90
23744;DHT22;12052;53.478;10.182;2023-01-09T09:09:25;6.40;99.90
23744;DHT22;12052;53.478;10.182;2023-01-09T09:11:50;6.50;99.90
23744;DHT22;12052;53.478;10.182;2023-01-09T09:14:16;6.70;99.90
23744;DHT22;12052;53.478;10.182;2023-01-09T09:17:00;6.60;99.90
23744;DHT22;12052;53.478;10.182;2023-01-09T09:19:26;6.60;99.90
23744;DHT22;12052;53.478;10.182;2023-01-09T09:21:52;6.60;99.90
23744;DHT22;12052;53.478;10.182;2023-01-09T09:24:18;6.50;99.90
23744;DHT22;12052;53.478;10.182;2023-01-09T09:26:44;6.40;99.90
23744;DHT22;12052;53.478;10.182;2023-01-09T09:29:09;6.40;99.90
23744;DHT22;12052;53.478;10.182;2023-01-09T09:31:36;6.40;99.90
23744;DHT22;12052;53.478;10.182;2023-01-09T09:34:06;6.30;99.90
23744;DHT22;12052;53.478;10.182;2023-01-09T09:36:32;6.30;99.90
23744;DHT22;12052;53.478;10.182;2023-01-09T09:38:58;6.30;99.90
23744;DHT22;12052;53.478;10.182;2023-01-09T09:52:55;6.30;99.90
23744;DHT22;12052;53.478;10.182;2023-01-09T09:55:33;6.40;99.90
23744;DHT22;12052;53.478;10.182;2023-01-09T09:58:15;6.30;99.90
23744;DHT22;12052;53.478;10.182;2023-01-09T10:00:41;6.40;99.90
23744;DHT22;12052;53.478;10.182;2023-01-09T10:05:59;6.50;99.90
23744;DHT22;12052;53.478;10.182;2023-01-09T10:11:02;6.40;99.90
23744;DHT22;12052;53.478;10.182;2023-01-09T10:13:30;6.40;99.90
23744;DHT22;12052;53.478;10.182;2023-01-09T10:24:46;6.30;99.90
23744;DHT22;12052;53.478;10.182;2023-01-09T10:27:39;6.30;99.90
23744;DHT22;12052;53.478;10.182;2023-01-09T10:38:40;6.40;99.90
23744;DHT22;12052;53.478;10.182;2023-01-09T10:41:12;6.40;99.90
23744;DHT22;12052;53.478;10.182;2023-01-09T10:44:12;6.30;99.90
23744;DHT22;12052;53.478;10.182;2023-01-09T10:46:48;6.30;99.90
23744;DHT22;12052;53.478;10.182;2023-01-09T10:49:15;6.30;99.90
23744;DHT22;12052;53.478;10.182;2023-01-09T10:51:47;6.30;99.90
23744;DHT22;12052;53.478;10.182;2023-01-09T10:54:18;6.30;99.90
23744;DHT22;12052;53.478;10.182;2023-01-09T10:56:54;6.40;99.90
23744;DHT22;12052;53.478;10.182;2023-01-09T10:59:24;6.40;99.90
23744;DHT22;12052;53.478;10.182;2023-01-09T11:01:49;6.40;99.90
23744;DHT22;12052;53.478;10.182;2023-01-09T11:04:36;6.40;99.90
23744;DHT22;12052;53.478;10.182;2023-01-09T11:07:19;6.50;99.90
23744;DHT22;12052;53.478;10.182;2023-01-09T11:10:07;6.50;99.90
23744;DHT22;12052;53.478;10.182;2023-01-09T11:12:34;6.50;99.90
23744;DHT22;12052;53.478;10.182;2023-01-09T11:15:21;6.50;99.90
23744;DHT22;12052;53.478;10.182;2023-01-09T11:17:53;6.60;99.90
23744;DHT22;12052;53.478;10.182;2023-01-09T11:20:26;6.50;99.90
23744;DHT22;12052;53.478;10.182;2023-01-09T11:22:54;6.50;99.90
23744;DHT22;12052;53.478;10.182;2023-01-09T11:25:22;6.50;99.90
23744;DHT22;12052;53.478;10.182;2023-01-09T11:28:08;6.50;99.90
23744;DHT22;12052;53.478;10.182;2023-01-09T11:30:35;6.50;99.90
23744;DHT22;12052;53.478;10.182;2023-01-09T11:33:21;6.50;99.90
23744;DHT22;12052;53.478;10.182;2023-01-09T11:38:20;6.50;99.90
23744;DHT22;12052;53.478;10.182;2023-01-09T11:40:54;6.60;99.90
23744;DHT22;12052;53.478;10.182;2023-01-09T11:43:35;6.60;99.90
23744;DHT22;12052;53.478;10.182;2023-01-09T11:46:09;6.60;99.90
23744;DHT22;12052;53.478;10.182;2023-01-09T11:48:56;6.70;99.90
23744;DHT22;12052;53.478;10.182;2023-01-09T11:51:29;6.70;99.90
23744;DHT22;12052;53.478;10.182;2023-01-09T11:56:39;6.80;99.90
23744;DHT22;12052;53.478;10.182;2023-01-09T11:59:14;6.70;99.90
23744;DHT22;12052;53.478;10.182;2023-01-09T12:02:05;6.80;99.90
23744;DHT22;12052;53.478;10.182;2023-01-09T12:07:57;6.80;99.90
23744;DHT22;12052;53.478;10.182;2023-01-09T12:11:12;6.80;99.90
23744;DHT22;12052;53.478;10.182;2023-01-09T12:19:59;7.00;99.90
23744;DHT22;12052;53.478;10.182;2023-01-09T12:22:35;6.90;99.90
23744;DHT22;12052;53.478;10.182;2023-01-09T12:25:24;6.90;99.90
23744;DHT22;12052;53.478;10.182;2023-01-09T12:27:56;6.90;99.90
23744;DHT22;12052;53.478;10.182;2023-01-09T12:30:38;6.90;99.90
23744;DHT22;12052;53.478;10.182;2023-01-09T12:48:03;6.80;99.90
23744;DHT22;12052;53.478;10.182;2023-01-09T12:50:49;6.80;99.90
23744;DHT22;12052;53.478;10.182;2023-01-09T12:53:26;6.80;99.90
23744;DHT22;12052;53.478;10.182;2023-01-09T12:56:07;6.90;99.90
23744;DHT22;12052;53.478;10.182;2023-01-09T12:58:53;6.90;99.90
23744;DHT22;12052;53.478;10.182;2023-01-09T13:01:33;6.90;99.90
23744;DHT22;12052;53.478;10.182;2023-01-09T13:04:23;6.90;99.90
23744;DHT22;12052;53.478;10.182;2023-01-09T13:06:58;6.90;99.90
23744;DHT22;12052;53.478;10.182;2023-01-09T13:09:36;7.00;99.90
23744;DHT22;12052;53.478;10.182;2023-01-09T13:12:07;6.90;99.90
23744;DHT22;12052;53.478;10.182;2023-01-09T13:17:35;7.00;99.90
23744;DHT22;12052;53.478;10.182;2023-01-09T13:22:43;7.10;99.90
23744;DHT22;12052;53.478;10.182;2023-01-09T13:28:29;7.10;99.90
23744;DHT22;12052;53.478;10.182;2023-01-09T13:31:24;7.10;99.90
23744;DHT22;12052;53.478;10.182;2023-01-09T13:34:00;7.20;99.90
23744;DHT22;12052;53.478;10.182;2023-01-09T13:36:32;7.10;99.90
23744;DHT22;12052;53.478;10.182;2023-01-09T13:39:00;7.10;99.90
23744;DHT22;12052;53.478;10.182;2023-01-09T13:41:26;7.00;99.90
23744;DHT22;12052;53.478;10.182;2023-01-09T13:44:24;7.00;99.90
23744;DHT22;12052;53.478;10.182;2023-01-09T13:46:57;7.00;99.90
23744;DHT22;12052;53.478;10.182;2023-01-09T13:49:56;7.00;99.90
23744;DHT22;12052;53.478;10.182;2023-01-09T13:52:30;7.00;99.90
23744;DHT22;12052;53.478;10.182;2023-01-09T13:57:34;6.90;99.90
23744;DHT22;12052;53.478;10.182;2023-01-09T14:07:34;6.90;99.90
23744;DHT22;12052;53.478;10.182;2023-01-09T14:10:07;6.80;99.90
23744;DHT22;12052;53.478;10.182;2023-01-09T14:12:44;6.80;99.90
23744;DHT22;12052;53.478;10.182;2023-01-09T14:15:36;6.80;99.90
23744;DHT22;12052;53.478;10.182;2023-01-09T14:18:22;6.80;99.90
23744;DHT22;12052;53.478;10.182;2023-01-09T14:20:56;6.80;99.90
23744;DHT22;12052;53.478;10.182;2023-01-09T14:23:27;6.80;99.90
23744;DHT22;12052;53.478;10.182;2023-01-09T14:25:54;6.80;99.90
23744;DHT22;12052;53.478;10.182;2023-01-09T14:28:28;6.80;99.90
23744;DHT22;12052;53.478;10.182;2023-01-09T14:33:29;6.90;99.90
23744;DHT22;12052;53.478;10.182;2023-01-09T14:38:43;6.80;99.90
23744;DHT22;12052;53.478;10.182;2023-01-09T14:41:31;6.80;99.90
23744;DHT22;12052;53.478;10.182;2023-01-09T14:47:43;6.80;99.90
23744;DHT22;12052;53.478;10.182;2023-01-09T14:55:52;6.70;99.90
23744;DHT22;12052;53.478;10.182;2023-01-09T15:00:48;6.60;99.90
23744;DHT22;12052;53.478;10.182;2023-01-09T15:03:16;6.60;99.90
23744;DHT22;12052;53.478;10.182;2023-01-09T15:05:43;6.60;99.90
23744;DHT22;12052;53.478;10.182;2023-01-09T15:08:16;6.60;99.90
23744;DHT22;12052;53.478;10.182;2023-01-09T15:10:44;6.50;99.90
23744;DHT22;12052;53.478;10.182;2023-01-09T15:13:28;6.50;99.90
23744;DHT22;12052;53.478;10.182;2023-01-09T15:15:55;6.40;99.90
23744;DHT22;12052;53.478;10.182;2023-01-09T15:18:23;6.40;99.90
23744;DHT22;12052;53.478;10.182;2023-01-09T15:20:52;6.40;99.90
23744;DHT22;12052;53.478;10.182;2023-01-09T15:23:22;6.30;99.90
23744;DHT22;12052;53.478;10.182;2023-01-09T15:25:49;6.30;99.90
23744;DHT22;12052;53.478;10.182;2023-01-09T15:28:43;6.30;99.90
23744;DHT22;12052;53.478;10.182;2023-01-09T15:31:19;6.30;99.90
23744;DHT22;12052;53.478;10.182;2023-01-09T15:33:50;6.30;99.90
23744;DHT22;12052;53.478;10.182;2023-01-09T15:36:26;6.20;99.90
23744;DHT22;12052;53.478;10.182;2023-01-09T15:38:53;6.30;99.90
23744;DHT22;12052;53.478;10.182;2023-01-09T15:41:27;6.30;99.90
23744;DHT22;12052;53.478;10.182;2023-01-09T15:44:33;6.20;99.90
23744;DHT22;12052;53.478;10.182;2023-01-09T15:47:04;6.20;99.90
23744;DHT22;12052;53.478;10.182;2023-01-09T15:49:34;6.20;99.90
23744;DHT22;12052;53.478;10.182;2023-01-09T15:52:00;6.20;99.90
23744;DHT22;12052;53.478;10.182;2023-01-09T15:54:29;6.20;99.90
23744;DHT22;12052;53.478;10.182;2023-01-09T15:59:54;6.10;99.90
23744;DHT22;12052;53.478;10.182;2023-01-09T16:02:21;6.00;99.90
23744;DHT22;12052;53.478;10.182;2023-01-09T16:05:14;6.00;99.90
23744;DHT22;12052;53.478;10.182;2023-01-09T16:07:50;6.00;99.90
23744;DHT22;12052;53.478;10.182;2023-01-09T16:10:27;6.10;99.90
23744;DHT22;12052;53.478;10.182;2023-01-09T16:12:56;6.00;99.90
23744;DHT22;12052;53.478;10.182;2023-01-09T16:15:22;6.00;99.90
23744;DHT22;12052;53.478;10.182;2023-01-09T16:20:43;6.00;99.90
23744;DHT22;12052;53.478;10.182;2023-01-09T16:23:32;6.00;99.90
23744;DHT22;12052;53.478;10.182;2023-01-09T16:26:13;5.90;99.90
23744;DHT22;12052;53.478;10.182;2023-01-09T16:28:44;6.00;99.90
23744;DHT22;12052;53.478;10.182;2023-01-09T16:31:23;6.00;99.90
23744;DHT22;12052;53.478;10.182;2023-01-09T16:34:02;6.00;99.90
23744;DHT22;12052;53.478;10.182;2023-01-09T16:36:30;6.00;99.90
23744;DHT22;12052;53.478;10.182;2023-01-09T16:38:57;6.00;99.90
23744;DHT22;12052;53.478;10.182;2023-01-09T16:41:25;6.00;99.90
23744;DHT22;12052;53.478;10.182;2023-01-09T16:44:10;6.00;99.90
23744;DHT22;12052;53.478;10.182;2023-01-09T16:46:43;6.00;99.90
23744;DHT22;12052;53.478;10.182;2023-01-09T16:49:19;6.00;99.90
23744;DHT22;12052;53.478;10.182;2023-01-09T16:51:47;6.00;99.90
23744;DHT22;12052;53.478;10.182;2023-01-09T16:54:13;6.10;99.90
23744;DHT22;12052;53.478;10.182;2023-01-09T16:56:39;6.10;99.90
23744;DHT22;12052;53.478;10.182;2023-01-09T16:59:17;6.10;99.90
23744;DHT22;12052;53.478;10.182;2023-01-09T17:01:48;6.10;99.90
23744;DHT22;12052;53.478;10.182;2023-01-09T17:04:15;6.10;99.90
23744;DHT22;12052;53.478;10.182;2023-01-09T17:06:42;6.10;99.90
23744;DHT22;12052;53.478;10.182;2023-01-09T17:09:15;6.10;99.90
23744;DHT22;12052;53.478;10.182;2023-01-09T17:11:41;6.10;99.90
23744;DHT22;12052;53.478;10.182;2023-01-09T17:14:10;6.10;99.90
23744;DHT22;12052;53.478;10.182;2023-01-09T17:16:36;6.00;99.90
23744;DHT22;12052;53.478;10.182;2023-01-09T17:19:02;6.00;99.90
23744;DHT22;12052;53.478;10.182;2023-01-09T17:21:30;6.10;99.90
23744;DHT22;12052;53.478;10.182;2023-01-09T17:23:57;6.00;99.90
23744;DHT22;12052;53.478;10.182;2023-01-09T17:26:44;6.10;99.90
23744;DHT22;12052;53.478;10.182;2023-01-09T17:29:29;6.10;99.90
23744;DHT22;12052;53.478;10.182;2023-01-09T17:31:56;6.10;99.90
23744;DHT22;12052;53.478;10.182;2023-01-09T17:34:22;6.10;99.90
23744;DHT22;12052;53.478;10.182;2023-01-09T17:36:48;6.10;99.90
23744;DHT22;12052;53.478;10.182;2023-01-09T17:39:15;6.10;99.90
23744;DHT22;12052;53.478;10.182;2023-01-09T17:41:42;6.10;99.90
23744;DHT22;12052;53.478;10.182;2023-01-09T17:44:10;6.10;99.90
23744;DHT22;12052;53.478;10.182;2023-01-09T17:46:38;6.10;99.90
23744;DHT22;12052;53.478;10.182;2023-01-09T17:49:05;6.10;99.90
23744;DHT22;12052;53.478;10.182;2023-01-09T17:51:30;6.10;99.90
23744;DHT22;12052;53.478;10.182;2023-01-09T17:53:57;6.20;99.90
23744;DHT22;12052;53.478;10.182;2023-01-09T17:56:25;6.10;99.90
23744;DHT22;12052;53.478;10.182;2023-01-09T17:58:53;6.10;99.90
23744;DHT22;12052;53.478;10.182;2023-01-09T18:01:19;6.10;99.90
23744;DHT22;12052;53.478;10.182;2023-01-09T18:03:45;6.00;99.90